Time;durP1;ratioP1;P1;durP2;ratioP2;P2;SDS_P1;SDS_P2;PMS_P1;PMS_P2;Temp;Humidity;BMP_temperature;BMP_pressure;BME280_temperature;BME280_humidity;BME280_pressure;Samples;Min_cycle;Max_cycle;Signal;HPM_P1;HPM_P2
2023/12/26 00:00:29;;;;;;;1.30;1.20;;;;;;;11.98;58.29;98195.75;5009295;28;20274;-57
2023/12/26 00:02:55;;;;;;;0.88;0.77;;;;;;;12.11;58.19;98212.00;5009225;28;20214;-57
2023/12/26 00:05:21;;;;;;;1.00;1.00;;;;;;;12.01;58.22;98195.53;5009574;28;20620;-57
2023/12/26 00:07:47;;;;;;;0.80;0.80;;;;;;;12.20;57.20;98213.91;5009117;28;20191;-57
2023/12/26 00:10:13;;;;;;;1.25;1.15;;;;;;;12.03;57.68;98191.06;5009229;28;20191;-57
2023/12/26 00:12:39;;;;;;;1.20;1.10;;;;;;;12.51;57.70;98265.03;5009190;28;20202;-57
2023/12/26 00:15:05;;;;;;;1.60;1.10;;;;;;;12.35;58.36;98257.63;5026404;28;20186;-57
2023/12/26 00:17:30;;;;;;;1.00;0.90;;;;;;;11.95;57.70;98190.81;5035182;28;20181;-57
2023/12/26 00:19:55;;;;;;;1.40;1.10;;;;;;;12.10;58.13;98220.75;5035119;28;20170;-57
2023/12/26 00:22:22;;;;;;;1.20;1.10;;;;;;;12.00;58.85;98214.59;5034768;28;20206;-57
2023/12/26 00:24:49;;;;;;;2.78;1.55;;;;;;;11.99;60.05;98225.94;5034922;28;20556;-57
2023/12/26 00:27:14;;;;;;;1.20;1.10;;;;;;;11.73;59.23;98190.81;5035043;28;20175;-57
2023/12/26 00:29:40;;;;;;;1.02;0.90;;;;;;;11.67;60.35;98210.25;5034930;28;20181;-57
2023/12/26 00:32:05;;;;;;;1.75;1.13;;;;;;;11.92;60.66;98274.03;5034964;28;20229;-56
2023/12/26 00:34:31;;;;;;;1.10;1.00;;;;;;;11.86;60.68;98279.66;5035008;28;20550;-57
2023/12/26 00:36:56;;;;;;;1.80;1.00;;;;;;;11.49;60.45;98214.19;5034970;28;20178;-57
2023/12/26 00:39:21;;;;;;;1.27;1.10;;;;;;;11.46;60.66;98203.25;5034867;28;20170;-57
2023/12/26 00:41:47;;;;;;;0.88;0.88;;;;;;;11.83;60.42;98272.13;5032246;28;20206;-57
2023/12/26 00:44:12;;;;;;;1.17;1.08;;;;;;;11.85;59.83;98278.03;5032653;28;20697;-57
2023/12/26 00:46:38;;;;;;;0.90;0.90;;;;;;;11.42;60.01;98201.81;5032331;28;20191;-57
2023/12/26 00:49:03;;;;;;;1.20;1.10;;;;;;;11.37;60.08;98191.00;5032137;28;20175;-57
2023/12/26 00:51:30;;;;;;;0.90;0.90;;;;;;;11.32;59.76;98190.50;5032132;28;20197;-57
2023/12/26 00:53:56;;;;;;;1.15;1.05;;;;;;;11.66;59.67;98231.09;5032062;28;20193;-57
2023/12/26 00:56:22;;;;;;;1.02;1.02;;;;;;;11.63;59.96;98227.00;5032027;28;20203;-57
2023/12/26 00:58:47;;;;;;;1.27;1.05;;;;;;;11.34;60.16;98188.63;5032040;28;20179;-57
2023/12/26 01:01:14;;;;;;;1.50;1.27;;;;;;;11.41;60.48;98211.38;5031999;28;20264;-57
2023/12/26 01:03:39;;;;;;;1.40;1.20;;;;;;;11.38;60.62;98232.31;5031765;28;20210;-57
2023/12/26 01:06:05;;;;;;;1.27;1.27;;;;;;;11.33;60.60;98236.19;5031884;28;20185;-57
2023/12/26 01:08:30;;;;;;;1.10;1.10;;;;;;;11.32;60.24;98232.75;5031771;28;20186;-57
2023/12/26 01:10:56;;;;;;;1.92;1.38;;;;;;;11.02;61.10;98192.75;5031860;28;20272;-57
2023/12/26 01:13:22;;;;;;;1.35;1.25;;;;;;;11.34;61.37;98261.16;5033199;28;20256;-57
2023/12/26 01:15:47;;;;;;;0.90;0.90;;;;;;;11.22;61.99;98259.47;5033905;28;20181;-57
2023/12/26 01:18:13;;;;;;;1.88;1.23;;;;;;;11.24;62.41;98280.88;5034007;28;20171;-57
2023/12/26 01:20:38;;;;;;;1.20;1.10;;;;;;;10.93;62.32;98224.53;5034108;28;20649;-57
2023/12/26 01:23:04;;;;;;;1.20;1.00;;;;;;;11.12;62.13;98271.41;5033667;28;20285;-57
2023/12/26 01:25:29;;;;;;;0.85;0.85;;;;;;;11.05;62.11;98254.69;5033991;28;20205;-57
2023/12/26 01:27:55;;;;;;;1.02;0.93;;;;;;;11.25;61.95;98283.38;5032844;28;20166;-57
2023/12/26 01:30:20;;;;;;;1.00;0.90;;;;;;;11.04;62.16;98253.03;5033918;28;20292;-57
2023/12/26 01:32:47;;;;;;;1.30;1.10;;;;;;;10.66;62.76;98217.00;5031228;28;20285;-57
2023/12/26 01:35:12;;;;;;;1.15;1.10;;;;;;;10.59;62.72;98196.84;5031421;28;20241;-57
2023/12/26 01:37:37;;;;;;;1.10;1.10;;;;;;;10.76;62.43;98225.75;5031250;28;20276;-57
2023/12/26 01:40:04;;;;;;;2.30;1.05;;;;;;;10.65;64.05;98255.91;5031097;28;20683;-57
2023/12/26 01:42:30;;;;;;;1.25;1.15;;;;;;;10.41;62.74;98201.59;5030995;28;20221;-57
2023/12/26 01:44:55;;;;;;;3.35;2.20;;;;;;;10.99;62.78;98279.28;5031154;28;20590;-57
2023/12/26 01:47:21;;;;;;;2.10;1.00;;;;;;;11.07;62.22;98264.00;5031124;28;20182;-57
2023/12/26 01:49:47;;;;;;;1.42;1.30;;;;;;;10.82;61.86;98217.53;5031152;28;20189;-57
2023/12/26 01:52:17;;;;;;;1.05;1.00;;;;;;;11.08;62.00;98280.38;5030956;28;20197;-57
2023/12/26 01:54:42;;;;;;;0.90;0.90;;;;;;;10.75;61.45;98210.31;5031121;28;20171;-57
2023/12/26 01:57:08;;;;;;;0.80;0.80;;;;;;;11.08;61.82;98273.41;5030920;28;20185;-57
2023/12/26 01:59:37;;;;;;;0.80;0.80;;;;;;;10.62;61.53;98196.63;5030975;28;20605;-57
2023/12/26 02:02:04;;;;;;;1.20;1.10;;;;;;;10.50;61.13;98179.41;5030857;28;20307;-57
2023/12/26 02:04:29;;;;;;;0.80;0.80;;;;;;;10.80;61.71;98228.94;5046925;28;20198;-57
2023/12/26 02:06:57;;;;;;;0.98;0.98;;;;;;;10.43;62.09;98175.59;5050728;28;20240;-57
2023/12/26 02:09:23;;;;;;;0.80;0.80;;;;;;;10.91;62.09;98252.28;5050624;28;20193;-57
2023/12/26 02:11:50;;;;;;;0.98;0.90;;;;;;;11.06;61.10;98269.28;5050617;28;20197;-57
2023/12/26 02:14:15;;;;;;;1.10;1.00;;;;;;;10.84;61.78;98243.28;5050464;28;20186;-57
2023/12/26 02:16:42;;;;;;;0.55;0.55;;;;;;;10.84;61.21;98240.69;5047384;28;20194;-57
2023/12/26 02:19:08;;;;;;;0.85;0.85;;;;;;;10.96;61.56;98245.81;5032847;28;20273;-58
2023/12/26 02:21:34;;;;;;;1.23;0.85;;;;;;;10.79;61.59;98209.19;5032755;28;20265;-56
2023/12/26 02:23:59;;;;;;;1.00;1.00;;;;;;;10.48;59.93;98165.72;5032658;28;20183;-56
2023/12/26 02:26:28;;;;;;;1.58;0.82;;;;;;;10.84;60.41;98232.94;5032440;28;20162;-56
2023/12/26 02:28:55;;;;;;;0.60;0.60;;;;;;;11.18;59.67;98283.94;5032611;28;20190;-56
2023/12/26 02:31:21;;;;;;;1.92;0.70;;;;;;;10.57;59.80;98176.25;5032589;28;20668;-56
2023/12/26 02:33:47;;;;;;;0.88;0.73;;;;;;;10.80;60.30;98218.59;5032475;28;20182;-56
2023/12/26 02:36:13;;;;;;;1.02;0.93;;;;;;;11.15;61.13;98299.69;5032710;28;20198;-56
2023/12/26 02:38:39;;;;;;;0.70;0.70;;;;;;;10.92;61.52;98288.38;5032434;28;20637;-56
2023/12/26 02:41:05;;;;;;;2.45;2.15;;;;;;;10.89;60.57;98291.22;5031883;28;20177;-56
2023/12/26 02:43:31;;;;;;;0.93;0.90;;;;;;;10.78;61.13;98298.06;5032463;28;20202;-56
2023/12/26 02:45:56;;;;;;;0.95;0.93;;;;;;;10.28;60.60;98228.41;5032455;28;20190;-56
2023/12/26 02:48:21;;;;;;;1.23;1.13;;;;;;;10.66;61.13;98292.03;5032461;28;20178;-56
2023/12/26 02:50:47;;;;;;;2.10;1.90;;;;;;;10.80;61.22;98314.34;5032167;28;20645;-56
2023/12/26 02:53:13;;;;;;;6.43;3.28;;;;;;;10.36;61.52;98233.84;5032370;28;20185;-56
2023/12/26 02:55:38;;;;;;;1.40;1.30;;;;;;;10.29;61.31;98240.41;5029854;28;20187;-56
2023/12/26 02:58:04;;;;;;;1.38;0.80;;;;;;;10.44;62.09;98275.53;5029918;28;20178;-56
2023/12/26 03:00:30;;;;;;;1.45;0.90;;;;;;;10.20;62.39;98243.59;5029839;28;20201;-56
2023/12/26 03:02:56;;;;;;;1.75;1.40;;;;;;;10.45;63.12;98321.16;5029695;28;20198;-56
2023/12/26 03:05:22;;;;;;;3.75;2.75;;;;;;;10.07;62.95;98263.50;5029759;28;20261;-56
2023/12/26 03:07:48;;;;;;;5.13;3.30;;;;;;;9.84;64.04;98234.03;5029707;28;20183;-57
2023/12/26 03:10:13;;;;;;;2.15;1.95;;;;;;;10.29;63.91;98310.22;5029695;28;20198;-56
2023/12/26 03:12:39;;;;;;;2.13;1.00;;;;;;;10.37;63.29;98333.78;5029666;28;20186;-56
2023/12/26 03:15:05;;;;;;;1.00;1.00;;;;;;;10.00;63.61;98273.41;5029645;28;20190;-58
2023/12/26 03:17:30;;;;;;;1.30;1.20;;;;;;;9.63;63.28;98219.97;5029450;28;20297;-56
2023/12/26 03:19:56;;;;;;;2.00;1.88;;;;;;;10.25;63.29;98330.28;5029604;28;20190;-56
2023/12/26 03:22:21;;;;;;;2.60;2.08;;;;;;;9.74;63.38;98233.00;5029409;28;20719;-57
2023/12/26 03:24:47;;;;;;;1.10;0.88;;;;;;;9.94;64.04;98284.16;5029361;28;20198;-57
2023/12/26 03:27:14;;;;;;;1.02;0.98;;;;;;;9.61;64.38;98256.38;5044403;28;20186;-57
2023/12/26 03:29:40;;;;;;;1.38;1.05;;;;;;;9.99;64.80;98330.38;5049612;28;20551;-57
2023/12/26 03:32:07;;;;;;;1.02;0.90;;;;;;;9.53;64.69;98251.72;5049195;28;20182;-57
2023/12/26 03:34:33;;;;;;;1.58;1.10;;;;;;;9.59;65.00;98282.28;5049244;28;20655;-56
2023/12/26 03:36:58;;;;;;;1.15;0.80;;;;;;;9.32;65.05;98258.28;5049175;28;20268;-56
2023/12/26 03:39:24;;;;;;;2.28;1.20;;;;;;;9.38;64.69;98262.22;5048967;28;20272;-57
2023/12/26 03:41:49;;;;;;;1.13;1.02;;;;;;;9.87;64.18;98346.69;5048949;28;20201;-57
2023/12/26 03:44:15;;;;;;;1.00;0.70;;;;;;;9.62;63.78;98299.34;5009151;28;20618;-56
2023/12/26 03:46:42;;;;;;;0.82;0.82;;;;;;;9.93;63.48;98341.13;5009332;28;20286;-58
2023/12/26 03:49:07;;;;;;;1.25;1.15;;;;;;;9.77;63.70;98322.41;5009941;28;20191;-56
2023/12/26 03:51:32;;;;;;;1.20;1.10;;;;;;;10.04;64.08;98355.00;5015624;28;20179;-58
2023/12/26 03:53:58;;;;;;;0.88;0.88;;;;;;;9.72;64.35;98324.44;5015934;28;20201;-58
2023/12/26 03:56:29;;;;;;;0.80;0.80;;;;;;;9.53;64.95;98293.03;5015762;28;20187;-58
2023/12/26 03:58:54;;;;;;;0.90;0.90;;;;;;;9.69;65.43;98329.84;5015850;28;20198;-58
2023/12/26 04:01:20;;;;;;;0.90;0.82;;;;;;;9.70;64.59;98337.47;5015976;28;20179;-58
2023/12/26 04:03:46;;;;;;;0.95;0.85;;;;;;;9.32;65.29;98262.63;5015779;28;20221;-58
2023/12/26 04:06:11;;;;;;;1.13;0.90;;;;;;;9.21;65.70;98260.72;4995871;28;20578;-58
2023/12/26 04:08:37;;;;;;;1.55;1.30;;;;;;;9.53;65.97;98336.94;4995960;28;20355;-58
2023/12/26 04:11:02;;;;;;;0.95;0.95;;;;;;;9.22;65.90;98282.22;4996020;28;20180;-58
2023/12/26 04:13:28;;;;;;;0.85;0.85;;;;;;;9.54;65.66;98341.16;5004371;28;20202;-58
2023/12/26 04:15:53;;;;;;;1.80;0.80;;;;;;;9.56;65.58;98341.88;5042362;28;20197;-58
2023/12/26 04:18:18;;;;;;;1.08;1.08;;;;;;;9.68;65.34;98361.75;5054899;28;20644;-58
2023/12/26 04:20:44;;;;;;;0.95;0.90;;;;;;;9.75;65.03;98373.34;5054975;28;20188;-58
2023/12/26 04:23:09;;;;;;;1.02;0.90;;;;;;;9.46;64.43;98317.59;5054952;28;20710;-58
2023/12/26 04:25:35;;;;;;;0.68;0.68;;;;;;;9.39;64.70;98306.00;5054829;28;20762;-58
2023/12/26 04:28:00;;;;;;;0.70;0.70;;;;;;;9.25;64.82;98277.69;5055162;28;20174;-58
2023/12/26 04:30:26;;;;;;;1.17;0.90;;;;;;;9.49;64.99;98327.72;5055101;28;20181;-58
2023/12/26 04:32:51;;;;;;;1.55;0.90;;;;;;;9.77;64.79;98364.56;5054959;28;20276;-58
2023/12/26 04:35:16;;;;;;;0.90;0.90;;;;;;;9.32;65.03;98309.09;5054762;28;20550;-58
2023/12/26 04:37:42;;;;;;;1.13;0.82;;;;;;;9.52;65.82;98348.19;5055904;28;20189;-58
2023/12/26 04:40:08;;;;;;;1.73;1.00;;;;;;;9.02;65.79;98274.97;5056864;28;20174;-58
2023/12/26 04:42:33;;;;;;;0.70;0.70;;;;;;;9.22;66.34;98314.03;5057380;28;20190;-58
2023/12/26 04:44:58;;;;;;;0.98;0.63;;;;;;;9.43;66.61;98353.94;5057567;28;20188;-58
2023/12/26 04:47:24;;;;;;;0.70;0.70;;;;;;;9.11;66.37;98305.31;5053948;28;20254;-58
2023/12/26 04:49:49;;;;;;;0.75;0.75;;;;;;;9.45;66.16;98377.94;5055061;28;20198;-58
2023/12/26 04:52:15;;;;;;;0.93;0.93;;;;;;;9.31;66.20;98370.22;5055113;28;20182;-58
2023/12/26 04:54:40;;;;;;;0.70;0.70;;;;;;;8.97;65.85;98298.44;5055021;28;20333;-58
2023/12/26 04:57:06;;;;;;;0.70;0.70;;;;;;;9.49;65.83;98388.91;5054853;28;20200;-58
2023/12/26 04:59:31;;;;;;;0.50;0.50;;;;;;;9.50;65.79;98386.19;5054976;28;20292;-58
2023/12/26 05:01:56;;;;;;;0.70;0.70;;;;;;;9.45;65.73;98383.09;5052635;28;20208;-58
2023/12/26 05:04:22;;;;;;;0.80;0.80;;;;;;;9.00;65.82;98287.94;5051851;28;20270;-58
2023/12/26 05:06:48;;;;;;;0.60;0.60;;;;;;;9.45;65.84;98377.94;5051711;28;20275;-58
2023/12/26 05:09:15;;;;;;;1.25;0.70;;;;;;;9.25;66.02;98355.13;5051690;28;20260;-58
2023/12/26 05:11:41;;;;;;;0.50;0.50;;;;;;;8.97;65.46;98298.44;5051779;28;20206;-58
2023/12/26 05:14:06;;;;;;;10.23;1.00;;;;;;;8.90;65.83;98302.34;5051714;28;20651;-58
2023/12/26 05:16:31;;;;;;;0.70;0.70;;;;;;;8.91;65.44;98298.84;5051692;28;20276;-58
2023/12/26 05:18:57;;;;;;;0.80;0.80;;;;;;;9.30;65.89;98373.75;5053273;28;20185;-58
2023/12/26 05:21:23;;;;;;;0.60;0.60;;;;;;;8.82;66.05;98303.75;5053974;28;20208;-57
2023/12/26 05:23:49;;;;;;;0.80;0.80;;;;;;;8.50;65.67;98238.72;5053876;28;20198;-58
2023/12/26 05:26:15;;;;;;;0.68;0.65;;;;;;;9.42;65.59;98383.28;5054058;28;20190;-58
2023/12/26 05:28:40;;;;;;;0.68;0.68;;;;;;;8.95;65.26;98297.72;5051391;28;20224;-57
2023/12/26 05:31:06;;;;;;;1.95;1.00;;;;;;;9.27;65.01;98350.69;5071080;28;20184;-58
2023/12/26 05:33:32;;;;;;;0.88;0.88;;;;;;;9.43;64.48;98377.19;5071130;28;20185;-57
2023/12/26 05:35:57;;;;;;;0.70;0.70;;;;;;;9.24;63.98;98348.31;5071202;28;20192;-57
2023/12/26 05:38:23;;;;;;;0.63;0.63;;;;;;;9.57;64.53;98402.97;5071264;28;20204;-58
2023/12/26 05:40:48;;;;;;;1.00;1.00;;;;;;;9.28;64.31;98338.63;5070644;28;20781;-55
2023/12/26 05:43:14;;;;;;;0.90;0.90;;;;;;;9.40;63.91;98359.31;5070932;28;20580;-58
2023/12/26 05:45:39;;;;;;;0.82;0.82;;;;;;;9.41;64.14;98350.66;5071144;28;20189;-58
2023/12/26 05:48:06;;;;;;;0.80;0.80;;;;;;;9.42;63.87;98354.88;5070953;28;20189;-58
2023/12/26 05:50:31;;;;;;;0.88;0.88;;;;;;;9.66;64.01;98401.56;5070877;28;20379;-58
2023/12/26 05:52:57;;;;;;;1.92;1.08;;;;;;;9.51;63.47;98377.53;5070964;28;20662;-58
2023/12/26 05:55:22;;;;;;;1.10;1.00;;;;;;;9.39;63.13;98352.47;5070842;28;20181;-58
2023/12/26 05:57:48;;;;;;;0.90;0.90;;;;;;;9.25;63.09;98323.31;5070806;28;20268;-58
2023/12/26 06:00:14;;;;;;;1.23;1.13;;;;;;;9.74;62.52;98418.19;5070766;28;20185;-58
2023/12/26 06:02:39;;;;;;;3.38;3.00;;;;;;;9.52;62.42;98374.84;5057451;28;20635;-55
2023/12/26 06:05:06;;;;;;;6.38;3.70;;;;;;;9.57;61.93;98382.31;5052907;28;20172;-55
2023/12/26 06:07:32;;;;;;;2.00;1.85;;;;;;;9.94;62.14;98439.25;5052980;28;20185;-56
2023/12/26 06:09:57;;;;;;;1.70;1.60;;;;;;;9.75;62.24;98399.19;5053059;28;20181;-56
2023/12/26 06:12:23;;;;;;;2.17;1.98;;;;;;;10.03;61.88;98437.78;5052849;28;20182;-56
2023/12/26 06:14:48;;;;;;;1.70;1.60;;;;;;;9.54;61.92;98359.25;5052618;28;20170;-56
2023/12/26 06:17:13;;;;;;;2.72;1.70;;;;;;;10.06;62.05;98450.56;5052679;28;20206;-56
2023/12/26 06:19:39;;;;;;;2.13;1.92;;;;;;;9.79;63.39;98404.06;5052801;28;20186;-56
2023/12/26 06:22:04;;;;;;;1.60;1.50;;;;;;;9.56;61.89;98379.81;5052676;28;20699;-56
2023/12/26 06:24:30;;;;;;;2.72;1.70;;;;;;;9.62;61.83;98384.59;5053012;28;20185;-56
2023/12/26 06:26:55;;;;;;;1.30;1.20;;;;;;;9.47;61.57;98386.41;5052967;28;20184;-56
2023/12/26 06:29:20;;;;;;;1.58;1.48;;;;;;;10.12;61.55;98476.00;5052649;28;20170;-56
2023/12/26 06:31:46;;;;;;;1.27;1.17;;;;;;;10.08;62.06;98465.03;5052708;28;20174;-58
2023/12/26 06:34:11;;;;;;;1.70;1.60;;;;;;;9.83;62.18;98415.00;5052289;28;20257;-56
2023/12/26 06:36:37;;;;;;;1.17;1.08;;;;;;;9.63;61.90;98373.31;5052616;28;20217;-56
2023/12/26 06:39:03;;;;;;;2.00;1.17;;;;;;;9.88;61.77;98462.06;5052259;28;20672;-56
2023/12/26 06:41:29;;;;;;;3.67;2.25;;;;;;;9.76;61.87;98430.06;5052461;28;20243;-56
2023/12/26 06:43:55;;;;;;;2.33;2.10;;;;;;;10.09;61.91;98478.81;5052305;28;20210;-56
2023/12/26 06:46:21;;;;;;;1.48;1.38;;;;;;;10.13;61.37;98469.91;5052347;28;20560;-56
2023/12/26 06:48:47;;;;;;;1.63;1.20;;;;;;;10.11;60.93;98461.41;5052279;28;20263;-57
2023/12/26 06:51:15;;;;;;;2.90;1.90;;;;;;;9.74;60.97;98407.84;5052002;28;20621;-56
2023/12/26 06:53:41;;;;;;;1.52;1.30;;;;;;;10.20;61.11;98473.72;5052226;28;20185;-56
2023/12/26 06:56:08;;;;;;;1.52;1.42;;;;;;;10.25;61.31;98474.25;5052274;28;20259;-56
2023/12/26 06:58:34;;;;;;;2.78;1.65;;;;;;;9.82;61.42;98415.94;5052074;28;20511;-56
2023/12/26 07:00:59;;;;;;;1.10;1.00;;;;;;;10.19;61.77;98480.66;5052098;28;20170;-56
2023/12/26 07:03:25;;;;;;;1.42;0.75;;;;;;;9.66;61.49;98397.19;5049448;28;20214;-56
2023/12/26 07:05:50;;;;;;;1.33;1.23;;;;;;;9.90;60.98;98413.69;5049564;28;20190;-56
2023/12/26 07:08:16;;;;;;;1.70;1.20;;;;;;;9.75;60.46;98391.44;5049578;28;20181;-56
2023/12/26 07:10:41;;;;;;;1.35;1.25;;;;;;;10.26;60.37;98471.56;5049439;28;20188;-56
2023/12/26 07:13:07;;;;;;;1.25;1.15;;;;;;;9.76;60.48;98382.75;5049245;28;20715;-56
2023/12/26 07:15:32;;;;;;;1.70;1.60;;;;;;;9.95;60.23;98417.63;5049389;28;20207;-56
2023/12/26 07:17:58;;;;;;;2.05;1.88;;;;;;;10.28;60.49;98463.72;5049350;28;20237;-57
2023/12/26 07:20:23;;;;;;;1.40;1.30;;;;;;;10.10;60.38;98439.09;5049328;28;20197;-57
2023/12/26 07:22:49;;;;;;;1.20;1.20;;;;;;;9.89;60.30;98399.09;5049087;28;20221;-56
2023/12/26 07:25:14;;;;;;;1.10;1.10;;;;;;;10.14;60.42;98428.44;5048318;28;20576;-57
2023/12/26 07:27:39;;;;;;;1.45;1.30;;;;;;;10.10;59.88;98415.81;5049343;28;20190;-57
2023/12/26 07:30:05;;;;;;;2.28;1.85;;;;;;;10.07;59.88;98403.09;5049117;28;20312;-57
2023/12/26 07:32:31;;;;;;;2.45;2.15;;;;;;;10.64;59.93;98471.59;5049126;28;20185;-57
2023/12/26 07:34:56;;;;;;;2.42;2.20;;;;;;;10.24;59.12;98388.13;5049054;28;20186;-57
2023/12/26 07:37:22;;;;;;;5.80;2.83;;;;;;;10.32;59.28;98392.75;5049246;28;20221;-57
2023/12/26 07:39:47;;;;;;;5.53;3.35;;;;;;;10.89;59.13;98461.22;5049358;28;20700;-57
2023/12/26 07:42:12;;;;;;;2.05;1.85;;;;;;;10.75;58.63;98443.22;5048885;28;20189;-57
2023/12/26 07:44:38;;;;;;;3.10;2.10;;;;;;;10.51;58.25;98388.00;5048928;28;20188;-57
2023/12/26 07:47:04;;;;;;;3.17;2.13;;;;;;;10.81;57.89;98433.25;5049164;28;20276;-57
2023/12/26 07:49:29;;;;;;;2.30;2.10;;;;;;;11.12;57.73;98468.22;5049100;28;20243;-57
2023/12/26 07:51:55;;;;;;;3.10;2.22;;;;;;;11.02;57.82;98459.44;5049103;28;20210;-57
2023/12/26 07:54:20;;;;;;;2.17;1.98;;;;;;;11.21;57.73;98490.91;5048976;28;20711;-57
2023/12/26 07:56:45;;;;;;;2.47;2.00;;;;;;;10.85;57.55;98415.78;5022592;28;20195;-57
2023/12/26 07:59:11;;;;;;;2.38;2.17;;;;;;;11.35;57.63;98489.00;5016659;28;20234;-57
2023/12/26 08:01:36;;;;;;;2.90;2.10;;;;;;;11.33;57.43;98457.19;5008970;28;20191;-57
2023/12/26 08:04:02;;;;;;;1.98;1.85;;;;;;;11.03;57.18;98393.78;5009035;28;20187;-57
2023/12/26 08:06:27;;;;;;;4.30;3.20;;;;;;;11.56;56.91;98473.69;5009003;28;20197;-57
2023/12/26 08:08:53;;;;;;;3.00;2.03;;;;;;;11.37;56.66;98419.75;5006247;28;20175;-57
2023/12/26 08:11:19;;;;;;;2.88;2.40;;;;;;;11.43;56.58;98423.69;5008970;28;20189;-57
2023/12/26 08:13:45;;;;;;;3.67;2.63;;;;;;;11.43;56.42;98406.38;5009290;28;20183;-58
2023/12/26 08:16:10;;;;;;;5.93;3.50;;;;;;;11.80;56.46;98451.22;5023769;28;20518;-57
2023/12/26 08:18:36;;;;;;;17.52;10.00;;;;;;;12.11;57.91;98503.34;5028991;28;20629;-57
2023/12/26 08:21:02;;;;;;;26.00;16.38;;;;;;;11.66;61.30;98407.31;5028683;28;20604;-57
2023/12/26 08:23:28;;;;;;;31.20;16.83;;;;;;;12.03;62.93;98486.69;5028587;28;20214;-57
2023/12/26 08:25:54;;;;;;;31.25;16.60;;;;;;;11.80;63.32;98448.63;5028552;28;20321;-57
2023/12/26 08:28:19;;;;;;;25.58;15.88;;;;;;;11.66;64.05;98417.69;5030103;28;20268;-57
2023/12/26 08:30:45;;;;;;;26.73;16.50;;;;;;;11.94;64.91;98467.44;5030942;28;20221;-58
2023/12/26 08:33:10;;;;;;;32.65;15.75;;;;;;;12.15;64.99;98478.00;5030947;28;20187;-57
2023/12/26 08:35:35;;;;;;;29.90;16.13;;;;;;;12.02;64.91;98451.31;5031512;28;20170;-57
2023/12/26 08:38:02;;;;;;;28.40;16.20;;;;;;;12.08;65.20;98451.66;5034759;28;20171;-57
2023/12/26 08:40:27;;;;;;;33.53;17.08;;;;;;;12.19;65.01;98461.28;5034672;28;20178;-57
2023/12/26 08:42:53;;;;;;;28.00;16.48;;;;;;;11.96;64.86;98415.47;5034572;28;20534;-57
2023/12/26 08:45:18;;;;;;;25.10;14.48;;;;;;;12.07;63.85;98410.31;5034670;28;20170;-57
2023/12/26 08:47:44;;;;;;;27.73;15.30;;;;;;;12.10;63.25;98410.91;5034528;28;20182;-57
2023/12/26 08:50:09;;;;;;;26.48;13.95;;;;;;;12.33;63.04;98463.66;5034295;28;20270;-57
2023/12/26 08:52:34;;;;;;;23.45;13.73;;;;;;;12.38;62.78;98467.53;5034480;28;20193;-57
2023/12/26 08:55:00;;;;;;;24.70;13.50;;;;;;;12.40;62.60;98462.25;5034386;28;20182;-57
2023/12/26 08:57:25;;;;;;;21.38;13.18;;;;;;;12.57;62.52;98477.38;5034405;28;20244;-57
2023/12/26 08:59:51;;;;;;;21.67;13.30;;;;;;;12.29;62.15;98418.13;5012073;28;20183;-57
2023/12/26 09:02:17;;;;;;;18.80;12.98;;;;;;;12.62;62.08;98449.31;5012085;28;20689;-57
2023/12/26 09:04:42;;;;;;;20.38;12.38;;;;;;;12.51;61.32;98413.81;5012001;28;20252;-57
2023/12/26 09:07:08;;;;;;;21.30;12.27;;;;;;;12.94;60.80;98463.25;5012008;28;20184;-57
2023/12/26 09:09:34;;;;;;;21.17;12.55;;;;;;;12.83;60.18;98429.50;4992174;28;20196;-57
2023/12/26 09:11:59;;;;;;;22.38;12.93;;;;;;;13.16;60.19;98478.84;4992173;28;20662;-57
2023/12/26 09:14:25;;;;;;;21.13;12.88;;;;;;;12.80;59.98;98399.41;4992259;28;20191;-57
2023/12/26 09:16:50;;;;;;;20.83;12.60;;;;;;;13.24;59.76;98455.72;4992193;28;20711;-57
2023/12/26 09:19:16;;;;;;;21.42;13.63;;;;;;;13.31;59.73;98462.09;5007328;28;20572;-57
2023/12/26 09:21:42;;;;;;;18.85;12.75;;;;;;;13.38;59.49;98465.84;5011653;28;20637;-57
2023/12/26 09:24:07;;;;;;;27.77;14.10;;;;;;;13.16;59.45;98419.09;5011391;28;20198;-57
2023/12/26 09:26:33;;;;;;;25.20;13.30;;;;;;;13.31;59.25;98430.91;5011772;28;20175;-57
2023/12/26 09:28:58;;;;;;;22.77;13.80;;;;;;;13.06;59.41;98384.44;5011868;28;20282;-57
2023/12/26 09:31:24;;;;;;;20.00;11.38;;;;;;;13.39;58.58;98418.09;5012720;28;20605;-57
2023/12/26 09:33:49;;;;;;;20.30;10.93;;;;;;;13.46;58.08;98408.88;5011642;28;20626;-57
2023/12/26 09:36:15;;;;;;;17.55;11.30;;;;;;;13.29;57.97;98388.63;5014327;28;20285;-58
2023/12/26 09:38:42;;;;;;;16.08;9.32;;;;;;;13.45;57.58;98405.47;5051039;28;20251;-57
2023/12/26 09:41:08;;;;;;;15.82;9.98;;;;;;;13.65;57.21;98433.28;5043953;28;20197;-57
2023/12/26 09:43:35;;;;;;;13.57;9.10;;;;;;;13.31;56.35;98361.53;5053164;28;20189;-58
2023/12/26 09:46:02;;;;;;;16.95;9.30;;;;;;;13.50;56.50;98387.72;5052884;28;20182;-58
2023/12/26 09:48:30;;;;;;;19.70;9.77;;;;;;;13.80;56.36;98418.22;5052539;28;20235;-57
2023/12/26 09:50:58;;;;;;;15.98;9.25;;;;;;;13.46;56.42;98367.28;5053059;28;20650;-59
2023/12/26 09:53:26;;;;;;;17.70;9.20;;;;;;;13.46;56.22;98351.69;5030798;28;20241;-58
2023/12/26 09:55:53;;;;;;;17.40;9.00;;;;;;;13.98;55.99;98438.34;5030757;28;20195;-58
2023/12/26 09:58:20;;;;;;;16.38;9.13;;;;;;;13.47;56.23;98343.78;5028578;28;20183;-57
2023/12/26 10:00:48;;;;;;;14.82;9.20;;;;;;;13.89;56.17;98407.06;5018033;28;20278;-57
2023/12/26 10:03:14;;;;;;;18.63;9.48;;;;;;;14.00;56.03;98415.63;5022293;28;20638;-61
2023/12/26 10:05:40;;;;;;;16.35;9.57;;;;;;;14.08;55.45;98415.84;5030744;28;20802;-58
2023/12/26 10:08:05;;;;;;;15.40;9.30;;;;;;;14.20;55.48;98419.22;5013897;28;20688;-59
2023/12/26 10:10:31;;;;;;;20.02;9.63;;;;;;;13.98;55.34;98375.91;5030508;28;20194;-56
2023/12/26 10:12:56;;;;;;;15.10;8.93;;;;;;;13.89;54.98;98350.66;5030333;28;20244;-56
2023/12/26 10:15:21;;;;;;;18.38;9.23;;;;;;;14.37;55.33;98413.44;5030412;28;20221;-56
2023/12/26 10:17:47;;;;;;;14.77;9.50;;;;;;;14.35;55.01;98402.34;5017003;28;20666;-56
2023/12/26 10:20:17;;;;;;;15.55;9.32;;;;;;;14.00;56.11;98360.19;5010515;28;20194;-56
2023/12/26 10:22:43;;;;;;;20.50;11.07;;;;;;;14.30;56.03;98399.28;5010228;28;20657;-56
2023/12/26 10:25:12;;;;;;;17.75;11.55;;;;;;;13.86;55.96;98318.88;5042554;28;20247;-57
2023/12/26 10:27:38;;;;;;;20.17;12.02;;;;;;;14.37;56.13;98390.00;5049997;28;20178;-56
2023/12/26 10:30:05;;;;;;;19.95;12.00;;;;;;;14.09;55.67;98325.59;5051811;28;20663;-56
2023/12/26 10:32:31;;;;;;;21.15;11.43;;;;;;;14.22;56.07;98339.22;5026543;28;20239;-56
2023/12/26 10:35:10;;;;;;;18.58;11.73;;;;;;;14.17;55.89;98323.97;5043818;28;20197;-58
2023/12/26 10:37:36;;;;;;;15.02;10.98;;;;;;;14.22;55.39;98328.81;5052065;28;20240;-57
2023/12/26 10:40:04;;;;;;;17.40;10.70;;;;;;;14.51;55.57;98372.28;5051978;28;20182;-56
2023/12/26 10:42:31;;;;;;;18.67;11.27;;;;;;;14.57;56.02;98373.53;5051525;28;20609;-57
2023/12/26 10:45:00;;;;;;;16.17;11.00;;;;;;;14.17;56.35;98291.94;5051745;28;20297;-56
2023/12/26 10:47:27;;;;;;;19.65;10.15;;;;;;;14.65;56.35;98358.09;5051837;28;20185;-56
2023/12/26 10:49:59;;;;;;;20.10;11.10;;;;;;;14.75;56.05;98361.56;5051835;28;20205;-56
2023/12/26 10:52:26;;;;;;;17.92;10.73;;;;;;;14.49;56.07;98316.91;5045552;28;20212;-56
2023/12/26 10:54:54;;;;;;;17.33;11.02;;;;;;;14.32;55.96;98277.66;5049168;28;20572;-57
2023/12/26 10:57:23;;;;;;;18.95;11.05;;;;;;;14.38;55.49;98275.34;5035680;28;20655;-57
2023/12/26 13:51:35;;;;;;;9.85;5.32;;;;;;;13.42;66.51;98223.75;5046562;28;20197;-56
2023/12/26 13:54:00;;;;;;;7.07;5.03;;;;;;;13.39;66.88;98224.03;5052411;28;20178;-57
2023/12/26 13:56:26;;;;;;;6.80;5.25;;;;;;;13.36;67.26;98220.88;5051572;28;20174;-56
2023/12/26 13:58:52;;;;;;;8.85;5.50;;;;;;;13.33;67.17;98226.28;5051737;28;20218;-56
2023/12/26 14:01:18;;;;;;;7.65;5.30;;;;;;;13.05;67.09;98182.75;5052207;28;20181;-57
2023/12/26 14:03:50;;;;;;;5.38;4.70;;;;;;;13.26;67.00;98220.81;5051258;28;20633;-57
2023/12/26 14:06:19;;;;;;;9.10;6.03;;;;;;;12.89;66.93;98169.34;5052199;28;20609;-57
2023/12/26 14:08:51;;;;;;;10.38;6.18;;;;;;;13.21;67.25;98241.13;5052466;28;20184;-56
2023/12/26 14:11:20;;;;;;;7.70;5.15;;;;;;;13.12;67.35;98234.06;5052138;28;20184;-57
2023/12/26 14:13:46;;;;;;;7.60;5.10;;;;;;;12.85;67.59;98178.34;5051982;28;20189;-56
2023/12/26 14:16:12;;;;;;;9.63;5.30;;;;;;;12.57;67.35;98145.16;5052417;28;20260;-56